Time;durP1;ratioP1;P1;durP2;ratioP2;P2;SDS_P1;SDS_P2;PMS_P1;PMS_P2;Temp;Humidity;BMP_temperature;BMP_pressure;BME280_temperature;BME280_humidity;BME280_pressure;Samples;Min_cycle;Max_cycle;Signal;HPM_P1;HPM_P2
2024/03/02 00:02:01;;;;;;;3.53;3.22;;;8.70;99.90;;;8.75;100.00;99599.16;4955752;28;20041;-71
2024/03/02 00:04:30;;;;;;;4.82;3.88;;;8.70;99.90;;;8.80;100.00;99594.69;4973028;28;20049;-70
2024/03/02 00:07:00;;;;;;;3.88;3.22;;;8.60;99.90;;;8.76;100.00;99592.13;4973151;28;20073;-70
2024/03/02 00:09:28;;;;;;;3.85;3.40;;;8.60;99.90;;;8.70;100.00;99608.03;4973426;28;20054;-72
2024/03/02 00:11:57;;;;;;;5.53;3.83;;;8.60;99.90;;;8.57;100.00;99615.31;4973062;28;20034;-73
2024/03/02 00:14:25;;;;;;;3.83;3.50;;;8.50;99.90;;;8.58;100.00;99614.41;4972856;28;20034;-74
2024/03/02 00:16:56;;;;;;;6.18;3.50;;;8.40;99.90;;;8.55;100.00;99618.84;4972678;28;20050;-73
2024/03/02 00:19:24;;;;;;;;;;;8.40;99.90;;;8.50;100.00;99629.44;4955459;28;20051;-69
2024/03/02 00:21:53;;;;;;;4.85;3.80;;;8.40;99.90;;;8.50;100.00;99641.75;4972204;28;19976;-72
2024/03/02 00:24:32;;;;;;;4.47;3.85;;;8.30;99.90;;;8.44;100.00;99620.81;4972255;28;20042;-71
2024/03/02 00:27:01;;;;;;;4.22;3.83;;;8.30;99.90;;;8.42;100.00;99627.84;4972464;28;20046;-75
2024/03/02 00:29:31;;;;;;;4.15;3.83;;;8.30;99.90;;;8.37;100.00;99603.34;4972535;28;20049;-80
2024/03/02 00:31:59;;;;;;;5.25;4.00;;;8.30;99.90;;;8.36;100.00;99627.94;4972777;28;20043;-76
2024/03/02 00:34:28;;;;;;;4.68;3.80;;;8.20;99.90;;;8.35;100.00;99648.16;4972407;28;20105;-72
2024/03/02 00:36:59;;;;;;;5.75;3.72;;;8.20;99.90;;;8.34;100.00;99613.94;4972263;28;20097;-73
2024/03/02 00:39:32;;;;;;;4.55;3.88;;;8.20;99.90;;;8.32;100.00;99618.34;4972073;28;20035;-70
2024/03/02 00:42:00;;;;;;;3.63;3.42;;;8.20;99.90;;;8.16;100.00;99628.22;4973142;28;20047;-74
2024/03/02 00:44:30;;;;;;;4.63;3.83;;;8.20;99.90;;;8.31;100.00;99624.50;4972970;28;20117;-73
2024/03/02 00:47:01;;;;;;;5.90;3.97;;;8.20;99.90;;;8.36;100.00;99634.09;4974202;28;20045;-74
2024/03/02 00:49:29;;;;;;;5.35;3.90;;;8.20;99.90;;;8.26;100.00;99618.44;4974136;28;20042;-73
2024/03/02 00:51:58;;;;;;;4.30;3.92;;;8.20;99.90;;;8.36;100.00;99625.31;4973228;28;20073;-74
2024/03/02 00:54:31;;;;;;;4.15;3.85;;;8.20;99.90;;;8.37;100.00;99621.78;4973975;28;20495;-74
2024/03/02 00:57:00;;;;;;;4.13;3.72;;;8.20;99.90;;;8.17;100.00;99625.53;4974174;28;20048;-74
2024/03/02 00:59:29;;;;;;;5.15;3.75;;;8.10;99.90;;;8.19;100.00;99615.88;4973863;28;20078;-74
2024/03/02 01:01:58;;;;;;;3.75;3.45;;;8.10;99.90;;;8.26;100.00;99608.78;4973986;28;20071;-75
2024/03/02 01:04:26;;;;;;;4.20;3.80;;;8.10;99.90;;;8.13;100.00;99617.72;4973882;28;20057;-75
2024/03/02 01:06:54;;;;;;;4.43;3.72;;;8.00;99.90;;;8.07;100.00;99625.72;4973855;28;20070;-74
2024/03/02 01:09:23;;;;;;;3.63;3.40;;;8.00;99.90;;;7.89;100.00;99570.69;4973922;28;20050;-74
2024/03/02 01:11:53;;;;;;;3.60;3.40;;;8.00;99.90;;;7.87;100.00;99609.31;4973736;28;20061;-75
2024/03/02 01:14:22;;;;;;;3.85;3.55;;;7.90;99.90;;;7.96;100.00;99586.38;4956498;28;20050;-75
2024/03/02 01:16:51;;;;;;;5.10;3.58;;;7.90;99.90;;;7.94;100.00;99616.22;4973872;28;20125;-75
2024/03/02 01:19:19;;;;;;;3.72;3.42;;;7.90;99.90;;;7.91;100.00;99632.09;4976853;28;20031;-74
2024/03/02 01:21:50;;;;;;;4.38;3.80;;;7.80;99.90;;;7.91;100.00;99632.97;4977832;28;20133;-75
2024/03/02 01:24:18;;;;;;;;;;;7.80;99.90;;;7.89;100.00;99632.13;4978090;28;20054;-73
2024/03/02 01:26:47;;;;;;;4.65;3.40;;;7.80;99.90;;;7.85;100.00;99621.63;4960249;28;20008;-75
2024/03/02 01:29:16;;;;;;;4.80;3.47;;;7.80;99.90;;;7.95;100.00;99641.69;4977557;28;20034;-75
2024/03/02 01:31:45;;;;;;;3.80;3.50;;;7.90;99.90;;;7.93;100.00;99661.88;4960066;28;20046;-74
2024/03/02 01:34:13;;;;;;;3.80;3.50;;;7.80;99.90;;;7.88;100.00;99651.41;4960206;28;20227;-75
2024/03/02 01:36:45;;;;;;;5.18;3.88;;;7.80;99.90;;;7.88;100.00;99659.31;4977415;28;20038;-74
2024/03/02 01:39:13;;;;;;;3.97;3.42;;;7.80;99.90;;;7.76;100.00;99641.03;4977454;28;20481;-74
2024/03/02 01:41:43;;;;;;;3.78;3.47;;;7.80;99.90;;;7.82;100.00;99633.06;4977182;28;20035;-74
2024/03/02 01:44:11;;;;;;;3.92;3.58;;;7.80;99.90;;;7.88;100.00;99642.63;4977492;28;20049;-75
2024/03/02 01:46:41;;;;;;;4.00;3.35;;;7.80;99.90;;;7.82;100.00;99654.13;4977175;28;20047;-74
2024/03/02 01:49:10;;;;;;;4.72;3.55;;;7.80;99.90;;;7.75;100.00;99641.94;4977498;28;20125;-73
2024/03/02 01:51:38;;;;;;;3.60;3.30;;;7.70;99.90;;;7.83;100.00;99647.97;4976793;28;20042;-73
2024/03/02 01:54:06;;;;;;;4.82;3.60;;;7.70;99.90;;;7.71;100.00;99634.97;4976807;28;20039;-73
2024/03/02 01:56:35;;;;;;;3.67;3.40;;;7.70;99.90;;;7.71;100.00;99645.50;4975178;28;20054;-73
2024/03/02 01:59:04;;;;;;;6.82;3.50;;;7.60;99.90;;;7.85;100.00;99655.84;4974846;28;20050;-74
2024/03/02 02:04:46;;;;;;;3.85;3.55;;;7.90;99.90;;;7.92;100.00;99655.75;5025181;23;20059;-62
2024/03/02 02:07:15;;;;;;;4.03;3.67;;;7.80;99.90;;;7.93;100.00;99643.47;4936760;29;20079;-62
2024/03/02 02:09:43;;;;;;;5.28;4.13;;;7.90;99.90;;;8.11;100.00;99667.75;4936600;29;20515;-62
2024/03/02 02:12:12;;;;;;;3.78;3.53;;;8.00;99.90;;;8.20;100.00;99662.38;4936421;29;20050;-67
2024/03/02 02:14:48;;;;;;;4.70;4.30;;;8.10;99.90;;;8.12;100.00;99659.00;4936781;29;20051;-65
2024/03/02 02:17:16;;;;;;;4.25;3.85;;;8.00;99.90;;;8.16;100.00;99665.09;4936591;29;20075;-63
2024/03/02 02:19:46;;;;;;;5.90;4.30;;;8.10;99.90;;;8.17;100.00;99665.06;4936584;29;20051;-62
2024/03/02 02:22:16;;;;;;;5.72;4.63;;;8.10;99.90;;;8.01;100.00;99663.50;4951326;29;20520;-62
2024/03/02 02:24:44;;;;;;;8.05;5.05;;;8.00;99.90;;;7.88;100.00;99667.19;4951273;29;20083;-62
2024/03/02 02:27:15;;;;;;;6.22;5.47;;;7.80;99.90;;;7.75;100.00;99663.00;4936381;29;20056;-63
2024/03/02 02:29:43;;;;;;;6.63;6.00;;;7.60;99.90;;;7.77;100.00;99655.06;4935014;28;20454;-65
2024/03/02 02:32:11;;;;;;;6.30;5.43;;;7.70;99.90;;;7.75;100.00;99662.13;4951123;29;20074;-61
2024/03/02 02:34:40;;;;;;;5.70;5.15;;;7.70;99.90;;;7.70;100.00;99663.94;4936721;29;20138;-62
2024/03/02 02:37:09;;;;;;;5.43;5.03;;;7.60;99.90;;;7.60;100.00;99668.44;4936477;29;20068;-61
2024/03/02 02:39:39;;;;;;;6.78;5.20;;;7.60;99.90;;;7.48;100.00;99612.47;4935967;29;20052;-62
2024/03/02 02:42:07;;;;;;;5.68;5.28;;;7.60;99.90;;;7.66;100.00;99667.50;4936065;29;20047;-62
2024/03/02 02:44:36;;;;;;;5.05;4.47;;;7.50;99.90;;;7.71;100.00;99657.78;4935938;29;20068;-62
2024/03/02 02:47:04;;;;;;;6.38;4.93;;;7.60;99.90;;;7.53;100.00;99661.50;4936210;29;20484;-65
2024/03/02 02:49:33;;;;;;;6.13;4.70;;;7.50;99.90;;;7.54;100.00;99654.50;4950556;29;20221;-63
2024/03/02 02:52:01;;;;;;;5.65;5.15;;;7.50;99.90;;;7.55;100.00;99649.19;4935855;29;20043;-64
2024/03/02 02:54:30;;;;;;;6.90;5.28;;;7.50;99.90;;;7.65;100.00;99658.72;4935674;29;20078;-61
2024/03/02 02:57:00;;;;;;;6.45;5.03;;;7.60;99.90;;;7.51;100.00;99665.91;4935654;29;20064;-64
2024/03/02 02:59:28;;;;;;;6.15;5.63;;;7.50;99.90;;;7.65;100.00;99661.38;4935753;29;20092;-63
2024/03/02 03:01:57;;;;;;;6.07;5.30;;;7.50;99.90;;;7.65;100.00;99656.09;4935738;29;20079;-64
2024/03/02 03:04:25;;;;;;;6.13;5.63;;;7.60;99.90;;;7.85;100.00;99662.00;4935458;29;20080;-65
2024/03/02 03:06:54;;;;;;;6.05;5.53;;;7.70;99.90;;;7.65;100.00;99668.38;4935817;29;20063;-62
2024/03/02 03:09:22;;;;;;;6.00;5.50;;;7.60;99.90;;;7.69;100.00;99670.97;4935500;29;20048;-64
2024/03/02 03:11:50;;;;;;;5.40;4.90;;;7.60;99.90;;;7.65;100.00;99660.47;4935419;29;20058;-62
2024/03/02 03:14:20;;;;;;;5.90;5.40;;;7.60;99.90;;;7.68;100.00;99677.13;4935375;29;20490;-66
2024/03/02 03:16:50;;;;;;;6.90;5.40;;;7.60;99.90;;;7.60;100.00;99667.56;4950189;29;20146;-64
2024/03/02 03:19:18;;;;;;;6.78;5.97;;;7.50;99.90;;;7.60;100.00;99668.44;4935411;29;20051;-61
2024/03/02 03:21:47;;;;;;;6.25;5.20;;;7.50;99.90;;;7.63;100.00;99676.28;4949969;29;20058;-63
2024/03/02 03:24:15;;;;;;;6.03;5.40;;;7.60;99.90;;;7.57;100.00;99676.38;4935361;29;20043;-63
2024/03/02 03:26:44;;;;;;;6.00;5.50;;;7.50;99.90;;;7.58;100.00;99675.50;4935227;29;20149;-61
2024/03/02 03:29:12;;;;;;;5.50;5.00;;;7.50;99.90;;;7.63;100.00;99660.50;4935463;29;20420;-65
2024/03/02 03:31:42;;;;;;;6.07;5.57;;;7.50;99.90;;;7.63;100.00;99678.06;4935171;29;20051;-62
2024/03/02 03:34:12;;;;;;;5.63;5.07;;;7.60;99.90;;;7.63;100.00;99676.28;4935070;29;20058;-63
2024/03/02 03:36:40;;;;;;;5.80;5.15;;;7.50;99.90;;;7.70;100.00;99683.25;4935352;29;20670;-62
2024/03/02 03:39:09;;;;;;;5.90;5.32;;;7.60;99.90;;;7.68;100.00;99684.16;4935010;29;20134;-62
2024/03/02 03:41:37;;;;;;;7.05;5.78;;;7.60;99.90;;;7.72;100.00;99672.69;4949269;28;20055;-63
2024/03/02 03:44:05;;;;;;;5.72;5.22;;;7.60;99.90;;;7.76;100.00;99691.03;4934912;29;20080;-62
2024/03/02 03:46:34;;;;;;;5.60;5.10;;;7.70;99.90;;;7.72;100.00;99670.94;4934791;29;20110;-63
2024/03/02 03:49:05;;;;;;;6.68;6.07;;;7.70;99.90;;;7.81;100.00;99677.84;4934816;29;20532;-61
2024/03/02 03:51:33;;;;;;;8.52;5.32;;;7.70;99.90;;;7.84;100.00;99670.75;4934786;29;20051;-61
2024/03/02 03:54:03;;;;;;;5.70;4.93;;;7.70;99.90;;;7.90;100.00;99675.97;4934794;29;20046;-63
2024/03/02 03:56:31;;;;;;;6.20;4.75;;;7.80;99.90;;;7.98;100.00;99679.38;4934644;29;20498;-61
2024/03/02 03:58:59;;;;;;;6.20;5.05;;;7.90;99.90;;;8.01;100.00;99686.38;4934668;29;20066;-63
2024/03/02 04:01:28;;;;;;;7.07;5.15;;;8.00;99.90;;;7.91;100.00;99690.88;4934563;29;20075;-64
2024/03/02 04:03:57;;;;;;;6.70;5.18;;;7.90;99.90;;;7.85;100.00;99695.34;4934346;29;20134;-62
2024/03/02 04:06:27;;;;;;;8.85;5.53;;;7.80;99.90;;;7.82;100.00;99690.13;4934557;29;20056;-64
2024/03/02 04:08:56;;;;;;;5.90;5.00;;;7.80;99.90;;;7.82;100.00;99693.59;4934533;29;20055;-63
2024/03/02 04:11:24;;;;;;;7.13;5.10;;;7.80;99.90;;;7.87;100.00;99694.44;4934451;29;20068;-63
2024/03/02 04:13:52;;;;;;;6.68;5.60;;;7.80;99.90;;;7.75;100.00;99694.56;4934268;29;20051;-62
2024/03/02 04:16:25;;;;;;;5.88;5.20;;;7.70;99.90;;;7.76;100.00;99693.66;4934419;29;20505;-63
2024/03/02 04:18:53;;;;;;;6.55;5.20;;;7.70;99.90;;;7.83;100.00;99698.00;4948909;29;20054;-62
2024/03/02 04:21:21;;;;;;;7.22;5.13;;;7.70;99.90;;;7.74;100.00;99686.72;4934292;29;20055;-65
2024/03/02 04:23:51;;;;;;;7.05;5.13;;;7.70;99.90;;;7.78;100.00;99694.53;4934141;29;20046;-63
2024/03/02 04:26:22;;;;;;;6.85;4.93;;;7.70;99.90;;;7.78;100.00;99705.06;4934205;29;20076;-62
2024/03/02 04:28:50;;;;;;;6.38;5.00;;;7.70;99.90;;;7.83;100.00;99687.47;4934178;29;20458;-61
2024/03/02 04:31:18;;;;;;;8.18;5.00;;;7.70;99.90;;;7.79;100.00;99700.66;4934024;29;20052;-61
2024/03/02 04:33:47;;;;;;;6.22;5.07;;;7.80;99.90;;;7.74;100.00;99690.19;4933958;29;20114;-63
2024/03/02 04:36:15;;;;;;;5.45;4.88;;;7.70;99.90;;;7.64;100.00;99695.59;4934120;29;20506;-62
2024/03/02 04:38:44;;;;;;;5.90;5.32;;;7.50;99.90;;;7.69;100.00;99693.78;4934080;29;20051;-63
2024/03/02 04:41:14;;;;;;;7.05;5.40;;;7.60;99.90;;;7.69;100.00;99699.03;4933944;29;20051;-61
2024/03/02 04:43:42;;;;;;;5.88;4.95;;;7.60;99.90;;;7.73;100.00;99706.88;4934081;29;20052;-62
2024/03/02 04:46:10;;;;;;;5.97;5.20;;;7.70;99.90;;;7.76;100.00;99709.47;4933932;29;20442;-62
2024/03/02 04:48:39;;;;;;;14.15;6.45;;;7.70;99.90;;;7.77;100.00;99713.84;4948696;29;20078;-64
2024/03/02 04:51:07;;;;;;;7.55;5.80;;;7.70;99.90;;;7.87;100.00;99712.84;4933878;29;20134;-61
2024/03/02 04:53:36;;;;;;;7.70;5.18;;;7.80;99.90;;;7.92;100.00;99712.78;4947903;28;20159;-64
2024/03/02 04:58:49;;;;;;;7.95;5.15;;;7.80;99.90;;;7.93;100.00;99712.78;4933309;29;20047;-61
2024/03/02 05:01:17;;;;;;;7.63;5.85;;;7.80;99.90;;;7.76;100.00;99720.00;4933783;29;20067;-61
2024/03/02 05:03:46;;;;;;;6.88;4.72;;;7.70;99.90;;;7.76;100.00;99729.66;4933827;29;20417;-62
2024/03/02 05:06:14;;;;;;;6.45;5.10;;;7.60;99.90;;;7.72;100.00;99726.22;4933736;29;20405;-61
2024/03/02 05:08:45;;;;;;;5.75;4.90;;;7.60;99.90;;;7.76;100.00;99729.66;4933709;29;20505;-64
2024/03/02 05:14:01;;;;;;;5.50;4.90;;;7.50;99.90;;;7.64;100.00;99735.06;4933600;29;20043;-61
2024/03/02 05:16:30;;;;;;;5.67;4.83;;;7.50;99.90;;;7.57;100.00;99736.88;4933750;29;20123;-63
2024/03/02 05:18:58;;;;;;;5.18;4.68;;;7.50;99.90;;;7.60;100.00;99742.13;4933587;29;20405;-61
2024/03/02 05:21:27;;;;;;;5.68;4.60;;;7.50;99.90;;;7.58;100.00;99748.28;4933650;29;20052;-62
2024/03/02 05:23:55;;;;;;;4.85;4.45;;;7.50;99.90;;;7.59;100.00;99750.03;4948293;29;20506;-63
2024/03/02 05:26:23;;;;;;;5.45;4.55;;;7.50;99.90;;;7.50;100.00;99761.50;4933591;29;20557;-60
2024/03/02 05:28:51;;;;;;;4.82;4.05;;;7.50;99.90;;;7.49;100.00;99758.91;4933579;29;20632;-60
2024/03/02 05:31:21;;;;;;;6.80;4.65;;;7.40;99.90;;;7.48;100.00;99746.63;4933605;29;20048;-60
2024/03/02 05:33:50;;;;;;;3.92;3.63;;;7.40;99.90;;;7.43;100.00;99758.97;4933453;29;20071;-60
2024/03/02 05:36:25;;;;;;;5.85;4.25;;;7.40;99.90;;;7.53;100.00;99753.56;4933510;29;20051;-61
2024/03/02 05:38:54;;;;;;;4.55;4.05;;;7.40;99.90;;;7.47;100.00;99739.63;4948114;29;20052;-62
2024/03/02 05:41:23;;;;;;;7.63;4.53;;;7.40;99.90;;;7.48;100.00;99747.50;4948170;29;20466;-61
2024/03/02 05:43:51;;;;;;;5.38;4.63;;;7.40;99.90;;;7.33;100.00;99747.66;4933332;29;20044;-60
2024/03/02 05:46:22;;;;;;;4.15;3.83;;;7.30;99.90;;;7.25;100.00;99757.38;4947997;29;20522;-63
2024/03/02 05:48:50;;;;;;;6.22;4.57;;;7.20;99.90;;;7.14;100.00;99756.59;4933328;29;20106;-61
2024/03/02 05:51:18;;;;;;;4.72;4.32;;;7.10;99.90;;;7.14;100.00;99751.34;4947982;29;20055;-61
2024/03/02 05:53:47;;;;;;;4.22;3.88;;;7.10;99.90;;;7.21;100.00;99747.78;4933213;29;20043;-62
2024/03/02 05:56:15;;;;;;;5.72;4.15;;;7.10;99.90;;;7.32;100.00;99756.41;4933289;29;20691;-61
2024/03/02 05:58:57;;;;;;;5.72;4.25;;;7.20;99.90;;;7.35;100.00;99752.91;4947913;29;20056;-61
2024/03/02 06:01:29;;;;;;;5.65;4.65;;;7.30;99.90;;;7.33;100.00;99755.56;4933294;29;20212;-63
2024/03/02 06:03:58;;;;;;;4.50;4.10;;;7.20;99.90;;;7.35;100.00;99750.28;4948649;28;20643;-62
2024/03/02 06:06:27;;;;;;;5.93;4.05;;;7.30;99.90;;;7.29;100.00;99748.56;4936767;29;20506;-61
2024/03/02 06:08:55;;;;;;;6.20;4.35;;;7.30;99.90;;;7.30;100.00;99752.94;4936719;29;20055;-61
2024/03/02 06:11:24;;;;;;;5.30;4.75;;;7.20;99.90;;;7.29;100.00;99762.59;4936588;29;20094;-62
2024/03/02 06:13:55;;;;;;;7.53;4.22;;;7.20;99.90;;;7.40;100.00;99754.59;4936587;29;20043;-62
2024/03/02 06:16:23;;;;;;;8.10;4.10;;;7.30;99.90;;;7.38;100.00;99766.00;4936630;29;20047;-61
2024/03/02 06:18:54;;;;;;;4.47;4.07;;;7.30;99.90;;;7.44;100.00;99766.84;4936506;29;20083;-62
2024/03/02 06:21:25;;;;;;;8.15;3.83;;;7.40;99.90;;;7.19;100.00;99736.41;4936293;29;20071;-62
2024/03/02 06:23:53;;;;;;;5.10;4.10;;;7.30;99.90;;;7.25;100.00;99788.94;4936411;29;20090;-60
2024/03/02 06:26:23;;;;;;;4.30;3.90;;;7.20;99.90;;;7.46;100.00;99767.69;4935120;29;20063;-61
2024/03/02 06:28:53;;;;;;;4.88;4.38;;;7.30;99.90;;;7.38;100.00;99782.66;4936364;29;20058;-62
2024/03/02 06:31:22;;;;;;;5.40;4.18;;;7.30;99.90;;;7.35;100.00;99774.81;4936382;29;20071;-62
2024/03/02 06:33:50;;;;;;;5.28;4.43;;;7.30;99.90;;;7.29;100.00;99773.13;4936126;29;20054;-61
2024/03/02 06:36:20;;;;;;;5.80;4.25;;;7.30;99.90;;;7.32;100.00;99779.25;4936183;29;20056;-65
2024/03/02 06:38:50;;;;;;;6.53;4.32;;;7.30;99.90;;;7.30;100.00;99766.09;4935946;29;20044;-62
2024/03/02 06:41:19;;;;;;;7.60;4.57;;;7.20;99.90;;;7.25;100.00;99778.41;4936081;29;20052;-62
2024/03/02 06:43:47;;;;;;;5.82;4.63;;;7.20;99.90;;;7.38;100.00;99773.91;4935719;29;20048;-61
2024/03/02 06:46:15;;;;;;;9.73;4.50;;;7.30;99.90;;;7.23;100.00;99781.06;4936066;29;20302;-63
2024/03/02 06:48:44;;;;;;;5.30;4.75;;;7.20;99.90;;;7.29;100.00;99795.91;4935933;29;20055;-65
2024/03/02 06:51:15;;;;;;;6.55;4.30;;;7.20;99.90;;;7.29;100.00;99788.03;4935844;29;20047;-64
2024/03/02 06:53:46;;;;;;;6.43;4.97;;;7.20;99.90;;;7.28;100.00;99807.28;4935929;29;20050;-63
2024/03/02 06:56:14;;;;;;;9.90;4.65;;;7.20;99.90;;;7.25;100.00;99797.69;4950528;29;20058;-64
2024/03/02 06:58:43;;;;;;;6.85;4.65;;;7.20;99.90;;;7.28;100.00;99805.56;4935683;29;20051;-64
2024/03/02 07:01:12;;;;;;;4.20;3.80;;;7.20;99.90;;;7.14;100.00;99803.94;4935660;29;20048;-64
2024/03/02 07:03:40;;;;;;;7.00;4.22;;;7.10;99.90;;;7.22;100.00;99796.81;4950304;29;20055;-64
2024/03/02 07:06:08;;;;;;;7.35;4.25;;;7.10;99.90;;;7.26;100.00;99812.56;4935678;29;20103;-65
2024/03/02 07:08:37;;;;;;;6.00;4.15;;;7.10;99.90;;;7.24;100.00;99821.34;4950190;29;20063;-64
2024/03/02 07:11:06;;;;;;;10.52;4.60;;;7.20;99.90;;;7.18;100.00;99813.53;4935644;29;20464;-61
2024/03/02 07:13:36;;;;;;;5.68;4.60;;;7.10;99.90;;;7.23;100.00;99810.00;4935460;29;20131;-61
2024/03/02 07:16:27;;;;;;;5.90;4.38;;;7.10;99.90;;;7.27;100.00;99819.59;4934656;29;20490;-61
2024/03/02 07:18:56;;;;;;;4.80;4.40;;;7.20;99.90;;;7.30;100.00;99810.78;4935370;29;20052;-60
2024/03/02 07:21:25;;;;;;;6.07;4.50;;;7.20;99.90;;;7.30;100.00;99826.56;4935440;29;20055;-61
2024/03/02 07:23:53;;;;;;;7.18;4.28;;;7.20;99.90;;;7.28;100.00;99828.34;4935466;29;20062;-60
2024/03/02 07:26:23;;;;;;;5.25;4.20;;;7.20;99.90;;;7.24;100.00;99821.34;4935290;29;20206;-63
2024/03/02 07:28:54;;;;;;;7.82;4.43;;;7.20;99.90;;;7.36;100.00;99821.25;4935102;29;20619;-60
2024/03/02 07:31:23;;;;;;;4.75;4.30;;;7.30;99.90;;;7.38;100.00;99823.88;4935026;29;20059;-64
2024/03/02 07:33:51;;;;;;;6.57;4.68;;;7.30;99.90;;;7.28;100.00;99820.44;4935011;29;20058;-60
2024/03/02 07:36:20;;;;;;;4.38;3.97;;;7.20;99.90;;;7.40;100.00;99836.13;4934899;29;20044;-60
2024/03/02 07:38:50;;;;;;;5.90;4.57;;;7.30;99.90;;;7.59;100.00;99842.97;4935039;29;20052;-63
2024/03/02 07:41:18;;;;;;;6.50;4.10;;;7.50;99.90;;;7.77;100.00;99834.91;4934992;29;20047;-63
2024/03/02 07:43:48;;;;;;;5.85;4.07;;;7.60;99.90;;;7.85;100.00;99859.41;4934804;29;20048;-63
2024/03/02 07:46:17;;;;;;;6.53;4.33;;;7.80;99.90;;;8.10;100.00;99839.84;4934817;29;20137;-66
2024/03/02 07:48:46;;;;;;;6.25;4.10;;;8.00;99.90;;;8.27;100.00;99846.69;4934704;29;20296;-63
2024/03/02 07:51:14;;;;;;;4.57;3.85;;;8.20;99.90;;;8.28;100.00;99858.97;4934466;29;20055;-63
2024/03/02 07:53:44;;;;;;;6.22;4.03;;;8.20;99.90;;;8.55;100.00;99848.13;4934505;29;20102;-62
2024/03/02 07:59:05;;;;;;;6.53;4.03;;;8.50;99.90;;;9.12;97.65;99846.44;5688704;23;20051;-73
2024/03/02 08:01:41;;;;;;;4.78;4.15;;;8.90;99.90;;;9.07;95.95;99822.75;5359422;23;20026;31
2024/03/02 08:04:10;;;;;;;9.80;4.30;;;9.00;99.90;;;8.87;95.14;99845.91;4894644;29;20079;-61
2024/03/02 08:06:40;;;;;;;5.97;4.20;;;8.90;99.90;;;8.60;96.02;99822.56;4896629;29;20434;-61
2024/03/02 08:09:10;;;;;;;7.85;4.53;;;8.60;99.90;;;8.71;95.57;99832.06;4896654;29;20131;-60
2024/03/02 08:11:38;;;;;;;5.35;4.05;;;8.60;99.90;;;8.70;95.46;99840.00;4896583;29;20045;-61
2024/03/02 08:14:08;;;;;;;5.00;4.10;;;8.60;99.90;;;8.73;95.24;99847.88;4896757;29;20048;-62
2024/03/02 08:16:36;;;;;;;6.75;4.13;;;8.70;99.90;;;8.78;95.44;99859.22;4896503;29;20123;-64
2024/03/02 08:19:05;;;;;;;6.07;4.10;;;8.70;99.90;;;8.89;94.54;99865.22;4896449;29;20100;-62
2024/03/02 08:21:35;;;;;;;6.57;4.10;;;8.70;99.90;;;9.06;95.07;99852.66;4896331;29;20147;-65
2024/03/02 08:24:04;;;;;;;6.53;4.40;;;8.90;99.90;;;9.28;94.29;99848.81;4896504;29;20045;-65
2024/03/02 08:26:33;;;;;;;11.27;4.95;;;9.20;99.90;;;9.34;93.26;99843.44;4896235;29;20161;-64
2024/03/02 08:29:03;;;;;;;5.95;4.00;;;9.30;99.90;;;9.15;94.44;99831.44;4895411;29;20044;-62
2024/03/02 08:31:33;;;;;;;6.00;4.30;;;9.10;99.90;;;9.45;93.43;99852.03;4896343;29;20045;-62
2024/03/02 08:34:02;;;;;;;6.63;4.00;;;9.30;99.90;;;9.40;92.33;99845.09;4896423;29;20049;-61
2024/03/02 08:36:30;;;;;;;4.57;3.90;;;9.30;99.90;;;9.51;91.96;99851.06;4910778;29;20508;-61
2024/03/02 08:38:59;;;;;;;9.05;4.20;;;9.30;99.90;;;9.41;91.84;99842.44;4896273;29;20389;-61
2024/03/02 08:41:28;;;;;;;7.35;3.88;;;9.30;99.90;;;9.57;91.57;99865.03;4896103;29;20049;-64
2024/03/02 08:43:56;;;;;;;6.95;4.00;;;9.40;99.90;;;9.67;90.08;99857.84;4896034;29;20048;-60
2024/03/02 08:46:24;;;;;;;5.97;3.95;;;9.60;99.90;;;9.93;89.85;99834.47;4910461;29;20044;-61
2024/03/02 08:48:54;;;;;;;10.90;4.20;;;9.70;99.90;;;9.99;89.95;99845.81;4896276;29;20079;-62
2024/03/02 08:51:22;;;;;;;10.90;4.60;;;9.80;99.90;;;9.81;89.37;99856.69;4896539;29;20441;-63
2024/03/02 08:53:51;;;;;;;8.50;4.53;;;9.70;99.90;;;9.46;88.76;99877.56;4910355;29;20317;-62
2024/03/02 08:56:20;;;;;;;7.90;3.95;;;9.40;99.90;;;9.60;89.44;99841.22;4910543;29;20048;-62
2024/03/02 08:58:48;;;;;;;9.35;4.32;;;9.40;99.90;;;9.71;88.65;99844.56;4895910;29;20549;-63
2024/03/02 09:01:17;;;;;;;9.73;4.32;;;9.60;99.90;;;9.80;88.94;99859.38;4896001;29;20446;-65
2024/03/02 09:03:46;;;;;;;9.68;4.10;;;9.60;99.90;;;9.61;89.83;99857.94;4895670;29;20057;-62
2024/03/02 09:06:17;;;;;;;8.48;4.25;;;9.50;99.90;;;9.99;88.17;99850.22;4910469;29;20063;-61
2024/03/02 09:08:46;;;;;;;6.05;3.90;;;9.80;99.90;;;9.81;89.26;99871.69;4895751;29;20390;-61
2024/03/02 09:11:15;;;;;;;10.05;4.45;;;9.70;99.90;;;9.90;88.34;99866.22;4895623;29;20119;-62
2024/03/02 09:13:44;;;;;;;12.88;4.78;;;9.80;99.90;;;9.91;89.12;99862.72;4895885;29;20121;-61
2024/03/02 09:16:12;;;;;;;7.50;4.25;;;9.80;99.90;;;10.30;88.97;99866.41;4895578;29;20498;-61
2024/03/02 09:18:42;;;;;;;9.40;3.83;;;10.10;99.90;;;10.18;86.43;99890.41;4896024;29;20441;-61
2024/03/02 09:21:10;;;;;;;12.75;4.55;;;10.10;99.90;;;10.03;86.23;99895.03;4895688;29;20037;-61
2024/03/02 09:23:40;;;;;;;11.63;4.25;;;9.90;99.90;;;10.08;85.88;99881.75;4894615;29;20406;-62
2024/03/02 09:26:09;;;;;;;9.30;4.07;;;10.00;99.90;;;10.32;87.86;99854.88;4895748;29;20056;-62
2024/03/02 09:28:37;;;;;;;7.88;3.90;;;10.10;99.90;;;10.48;85.46;99877.47;4895546;29;20072;-61
2024/03/02 09:31:05;;;;;;;6.47;3.90;;;10.30;99.90;;;10.46;84.64;99878.41;4895466;29;20430;-62
2024/03/02 09:33:34;;;;;;;10.88;4.10;;;10.30;99.90;;;10.52;83.14;99875.66;4895690;29;20127;-61
2024/03/02 09:36:03;;;;;;;9.13;4.05;;;10.40;99.90;;;10.63;83.04;99876.28;4895714;29;20461;-61
2024/03/02 09:38:33;;;;;;;11.38;4.05;;;10.50;99.90;;;10.77;82.29;99879.53;4895504;29;20494;-62
2024/03/02 09:41:04;;;;;;;9.85;3.72;;;10.60;99.90;;;10.77;81.13;99869.81;4899348;29;20068;-61
2024/03/02 09:43:32;;;;;;;9.55;4.28;;;10.70;99.90;;;10.75;81.74;99882.22;4899340;29;20045;-72
2024/03/02 09:46:01;;;;;;;9.38;3.80;;;10.70;99.90;;;10.58;80.77;99891.38;4899144;29;20375;-70
2024/03/02 09:48:29;;;;;;;10.88;4.50;;;10.50;99.90;;;10.66;81.24;99874.47;4897850;29;20053;-74
2024/03/02 09:50:58;;;;;;;8.05;4.07;;;10.50;99.90;;;11.02;81.14;99888.66;4898795;29;20083;-71
2024/03/02 09:53:32;;;;;;;13.13;4.10;;;10.80;99.90;;;10.95;78.27;99880.91;4913276;29;20056;-71
2024/03/02 09:56:01;;;;;;;7.20;3.70;;;10.90;99.90;;;10.85;78.36;99899.63;4898704;29;20071;-71
2024/03/02 09:58:31;;;;;;;10.80;4.20;;;10.80;99.90;;;11.12;79.78;99911.38;4898725;29;20040;-70
2024/03/02 10:01:00;;;;;;;10.60;4.10;;;11.00;99.90;;;11.16;80.58;99888.38;4898609;29;20308;-70
2024/03/02 10:03:32;;;;;;;8.88;4.18;;;11.00;99.90;;;10.95;80.32;99896.78;4897967;29;20048;-69
2024/03/02 10:06:26;;;;;;;10.32;4.00;;;10.90;99.90;;;10.81;80.22;99928.81;4912866;29;20045;-72
2024/03/02 10:08:56;;;;;;;13.30;4.35;;;10.70;99.90;;;10.87;80.76;99892.53;4898311;29;20144;-71
2024/03/02 10:11:30;;;;;;;9.23;4.00;;;10.70;99.90;;;10.82;79.67;99893.50;4898419;29;20067;-67
2024/03/02 10:14:15;;;;;;;13.32;4.70;;;10.70;99.90;;;11.01;81.03;99852.56;4898456;29;20044;-70
2024/03/02 10:16:45;;;;;;;11.52;4.68;;;10.90;99.90;;;11.01;77.57;99879.00;4912918;29;20045;-61
2024/03/02 10:19:19;;;;;;;9.77;4.40;;;10.90;99.90;;;10.75;79.64;99862.81;4898119;29;20393;-64
2024/03/02 10:21:49;;;;;;;12.70;4.40;;;10.60;99.90;;;11.10;80.96;99854.97;4898103;29;20044;-65
2024/03/02 10:24:18;;;;;;;10.10;4.80;;;10.90;99.90;;;11.20;80.56;99866.22;4898187;29;20201;-63
2024/03/02 10:26:46;;;;;;;9.73;4.40;;;11.00;99.90;;;11.20;78.24;99880.34;4898114;29;20049;-62
2024/03/02 10:29:17;;;;;;;10.07;4.22;;;11.00;99.90;;;11.06;77.27;99874.47;4897830;29;20055;-62
2024/03/02 10:31:47;;;;;;;12.50;4.28;;;10.90;99.90;;;11.08;78.56;99864.72;4898310;29;20434;-64
2024/03/02 10:34:16;;;;;;;9.07;4.68;;;10.90;99.90;;;11.18;79.32;99847.75;4896873;29;20466;-61
2024/03/02 10:36:46;;;;;;;11.13;4.72;;;11.00;99.90;;;11.24;77.43;99863.47;4897612;29;20036;-63
2024/03/02 10:39:15;;;;;;;12.40;4.40;;;11.00;99.90;;;11.14;76.70;99876.94;4898167;29;20040;-60
2024/03/02 10:41:46;;;;;;;9.93;4.00;;;11.00;99.90;;;11.01;75.74;99857.84;4897830;29;20111;-62
2024/03/02 10:44:16;;;;;;;13.95;4.43;;;10.90;99.90;;;11.23;76.89;99853.78;4898065;29;20514;-62
2024/03/02 10:46:48;;;;;;;16.02;4.93;;;11.00;99.90;;;11.42;78.44;99867.47;4897841;29;20040;-63